sensor_id;sensor_type;location;lat;lon;timestamp;pressure;altitude;pressure_sealevel;temperature;humidity
54806;BME280;62866;55.776;37.496;2024-01-30T00:01:15;100914.13;;;-0.65;90.95
54806;BME280;62866;55.776;37.496;2024-01-30T00:03:40;100918.47;;;-0.64;90.55
54806;BME280;62866;55.776;37.496;2024-01-30T00:06:07;100927.25;;;-0.65;90.25
54806;BME280;62866;55.776;37.496;2024-01-30T00:08:33;100927.75;;;-0.58;90.28
54806;BME280;62866;55.776;37.496;2024-01-30T00:10:58;100920.22;;;-0.64;89.77
54806;BME280;62866;55.776;37.496;2024-01-30T00:13:24;100926.09;;;-0.59;90.07
54806;BME280;62866;55.776;37.496;2024-01-30T00:15:49;100929.34;;;-0.56;90.37
54806;BME280;62866;55.776;37.496;2024-01-30T00:18:15;100924.09;;;-0.56;90.27
54806;BME280;62866;55.776;37.496;2024-01-30T00:20:41;100931.13;;;-0.56;90.08
54806;BME280;62866;55.776;37.496;2024-01-30T00:23:08;100920.53;;;-0.55;90.02
54806;BME280;62866;55.776;37.496;2024-01-30T00:25:34;100913.34;;;-0.51;90.49
54806;BME280;62866;55.776;37.496;2024-01-30T00:28:00;100903.19;;;-0.57;90.57
54806;BME280;62866;55.776;37.496;2024-01-30T00:30:25;100903.28;;;-0.59;90.60
54806;BME280;62866;55.776;37.496;2024-01-30T00:32:51;100904.94;;;-0.58;90.61
54806;BME280;62866;55.776;37.496;2024-01-30T00:35:16;100902.25;;;-0.56;90.48
54806;BME280;62866;55.776;37.496;2024-01-30T00:37:42;100901.31;;;-0.55;90.49
54806;BME280;62866;55.776;37.496;2024-01-30T00:40:08;100901.88;;;-0.50;90.27
54806;BME280;62866;55.776;37.496;2024-01-30T00:42:35;100896.81;;;-0.53;90.30
54806;BME280;62866;55.776;37.496;2024-01-30T00:45:01;100898.78;;;-0.57;89.96
54806;BME280;62866;55.776;37.496;2024-01-30T00:47:27;100901.22;;;-0.54;90.36
54806;BME280;62866;55.776;37.496;2024-01-30T00:49:54;100901.41;;;-0.57;90.36
54806;BME280;62866;55.776;37.496;2024-01-30T00:52:19;100899.63;;;-0.56;90.27
54806;BME280;62866;55.776;37.496;2024-01-30T00:54:45;100892.88;;;-0.60;90.12
54806;BME280;62866;55.776;37.496;2024-01-30T00:57:10;100898.84;;;-0.58;90.00
54806;BME280;62866;55.776;37.496;2024-01-30T00:59:36;100891.44;;;-0.66;89.97
54806;BME280;62866;55.776;37.496;2024-01-30T01:02:02;100896.22;;;-0.58;89.84
54806;BME280;62866;55.776;37.496;2024-01-30T01:04:27;100903.00;;;-0.54;90.19
54806;BME280;62866;55.776;37.496;2024-01-30T01:06:53;100896.72;;;-0.52;89.73
54806;BME280;62866;55.776;37.496;2024-01-30T01:09:18;100900.09;;;-0.50;89.80
54806;BME280;62866;55.776;37.496;2024-01-30T01:11:44;100893.19;;;-0.51;89.95
54806;BME280;62866;55.776;37.496;2024-01-30T01:14:09;100896.72;;;-0.52;89.98
54806;BME280;62866;55.776;37.496;2024-01-30T01:16:35;100893.19;;;-0.51;89.91
54806;BME280;62866;55.776;37.496;2024-01-30T01:19:01;100892.97;;;-0.48;89.49
54806;BME280;62866;55.776;37.496;2024-01-30T01:21:26;100890.56;;;-0.51;89.97
54806;BME280;62866;55.776;37.496;2024-01-30T01:23:52;100878.44;;;-0.53;90.46
54806;BME280;62866;55.776;37.496;2024-01-30T01:26:17;100882.38;;;-0.46;90.41
54806;BME280;62866;55.776;37.496;2024-01-30T01:28:43;100882.28;;;-0.45;90.19
54806;BME280;62866;55.776;37.496;2024-01-30T01:31:09;100877.88;;;-0.44;89.67
54806;BME280;62866;55.776;37.496;2024-01-30T01:33:34;100884.06;;;-0.45;90.23
54806;BME280;62866;55.776;37.496;2024-01-30T01:36:02;100881.44;;;-0.45;90.02
54806;BME280;62866;55.776;37.496;2024-01-30T01:38:28;100868.22;;;-0.44;89.94
54806;BME280;62866;55.776;37.496;2024-01-30T01:40:54;100868.94;;;-0.42;90.31
54806;BME280;62866;55.776;37.496;2024-01-30T01:43:19;100861.19;;;-0.43;90.32
54806;BME280;62866;55.776;37.496;2024-01-30T01:45:45;100859.97;;;-0.38;90.25
54806;BME280;62866;55.776;37.496;2024-01-30T01:48:11;100863.34;;;-0.35;90.21
54806;BME280;62866;55.776;37.496;2024-01-30T01:50:38;100858.19;;;-0.37;90.30
54806;BME280;62866;55.776;37.496;2024-01-30T01:53:05;100862.50;;;-0.36;90.04
54806;BME280;62866;55.776;37.496;2024-01-30T01:55:34;100862.69;;;-0.39;90.22
54806;BME280;62866;55.776;37.496;2024-01-30T01:58:01;100868.59;;;-0.35;90.11
54806;BME280;62866;55.776;37.496;2024-01-30T02:00:27;100860.63;;;-0.34;89.67
54806;BME280;62866;55.776;37.496;2024-01-30T02:02:54;100864.06;;;-0.33;89.90
54806;BME280;62866;55.776;37.496;2024-01-30T02:05:21;100847.69;;;-0.37;89.63
54806;BME280;62866;55.776;37.496;2024-01-30T02:07:46;100851.78;;;-0.33;89.65
54806;BME280;62866;55.776;37.496;2024-01-30T02:10:12;100864.84;;;-0.31;89.74
54806;BME280;62866;55.776;37.496;2024-01-30T02:12:38;100862.22;;;-0.31;89.88
54806;BME280;62866;55.776;37.496;2024-01-30T02:15:04;100848.59;;;-0.38;90.05
54806;BME280;62866;55.776;37.496;2024-01-30T02:17:30;100864.19;;;-0.35;90.11
54806;BME280;62866;55.776;37.496;2024-01-30T02:19:56;100862.03;;;-0.28;89.87
54806;BME280;62866;55.776;37.496;2024-01-30T02:22:22;100855.16;;;-0.31;90.06
54806;BME280;62866;55.776;37.496;2024-01-30T02:24:49;100868.06;;;-0.26;89.98
54806;BME280;62866;55.776;37.496;2024-01-30T02:27:15;100859.22;;;-0.25;89.76
54806;BME280;62866;55.776;37.496;2024-01-30T02:29:40;100852.38;;;-0.28;90.14
54806;BME280;62866;55.776;37.496;2024-01-30T02:32:06;100862.13;;;-0.30;90.10
54806;BME280;62866;55.776;37.496;2024-01-30T02:34:33;100847.38;;;-0.32;89.92
54806;BME280;62866;55.776;37.496;2024-01-30T02:36:59;100840.44;;;-0.33;90.03
54806;BME280;62866;55.776;37.496;2024-01-30T02:39:24;100850.59;;;-0.27;89.94
54806;BME280;62866;55.776;37.496;2024-01-30T02:41:50;100854.72;;;-0.23;90.10
54806;BME280;62866;55.776;37.496;2024-01-30T02:44:16;100853.97;;;-0.25;90.03
54806;BME280;62866;55.776;37.496;2024-01-30T02:46:41;100853.31;;;-0.29;89.99
54806;BME280;62866;55.776;37.496;2024-01-30T02:49:07;100839.78;;;-0.37;90.41
54806;BME280;62866;55.776;37.496;2024-01-30T02:51:32;100842.72;;;-0.27;90.48
54806;BME280;62866;55.776;37.496;2024-01-30T02:53:58;100844.28;;;-0.25;90.21
54806;BME280;62866;55.776;37.496;2024-01-30T02:56:24;100858.75;;;-0.18;90.41
54806;BME280;62866;55.776;37.496;2024-01-30T02:58:49;100863.34;;;-0.21;90.24
54806;BME280;62866;55.776;37.496;2024-01-30T03:01:15;100852.75;;;-0.20;90.55
54806;BME280;62866;55.776;37.496;2024-01-30T03:03:40;100852.66;;;-0.18;90.20
54806;BME280;62866;55.776;37.496;2024-01-30T03:06:06;100862.03;;;-0.14;90.08
54806;BME280;62866;55.776;37.496;2024-01-30T03:08:32;100862.25;;;-0.17;89.85
54806;BME280;62866;55.776;37.496;2024-01-30T03:11:00;100869.06;;;-0.15;89.84
54806;BME280;62866;55.776;37.496;2024-01-30T03:13:25;100874.06;;;-0.10;90.19
54806;BME280;62866;55.776;37.496;2024-01-30T03:15:51;100875.00;;;-0.11;89.95
54806;BME280;62866;55.776;37.496;2024-01-30T03:18:17;100872.38;;;-0.11;90.10
54806;BME280;62866;55.776;37.496;2024-01-30T03:20:43;100869.66;;;-0.10;89.99
54806;BME280;62866;55.776;37.496;2024-01-30T03:23:08;100884.09;;;-0.03;89.91
54806;BME280;62866;55.776;37.496;2024-01-30T03:25:34;100879.88;;;-0.05;89.66
54806;BME280;62866;55.776;37.496;2024-01-30T03:27:59;100888.59;;;-0.05;89.76
54806;BME280;62866;55.776;37.496;2024-01-30T03:30:25;100884.38;;;-0.07;90.23
54806;BME280;62866;55.776;37.496;2024-01-30T03:32:50;100878.00;;;-0.03;90.30
54806;BME280;62866;55.776;37.496;2024-01-30T03:35:16;100874.34;;;-0.01;90.30
54806;BME280;62866;55.776;37.496;2024-01-30T03:37:41;100875.28;;;-0.02;90.33
54806;BME280;62866;55.776;37.496;2024-01-30T03:40:07;100870.88;;;-0.01;90.15
54806;BME280;62866;55.776;37.496;2024-01-30T03:42:33;100872.44;;;0.02;90.45
54806;BME280;62866;55.776;37.496;2024-01-30T03:44:58;100874.88;;;0.05;90.40
54806;BME280;62866;55.776;37.496;2024-01-30T03:47:24;100888.59;;;0.10;90.09
54806;BME280;62866;55.776;37.496;2024-01-30T03:49:49;100892.06;;;0.10;90.10
54806;BME280;62866;55.776;37.496;2024-01-30T03:52:15;100890.38;;;0.09;90.15
54806;BME280;62866;55.776;37.496;2024-01-30T03:54:40;100887.47;;;0.14;90.08
54806;BME280;62866;55.776;37.496;2024-01-30T03:57:06;100895.19;;;0.17;89.87
54806;BME280;62866;55.776;37.496;2024-01-30T03:59:32;100892.56;;;0.17;89.73
54806;BME280;62866;55.776;37.496;2024-01-30T04:01:57;100894.22;;;0.18;89.83
54806;BME280;62866;55.776;37.496;2024-01-30T04:04:23;100894.88;;;0.21;89.92
54806;BME280;62866;55.776;37.496;2024-01-30T04:06:48;100902.00;;;0.19;89.83
54806;BME280;62866;55.776;37.496;2024-01-30T04:09:14;100898.44;;;0.20;89.93
54806;BME280;62866;55.776;37.496;2024-01-30T04:11:40;100901.06;;;0.20;89.99
54806;BME280;62866;55.776;37.496;2024-01-30T04:14:07;100891.50;;;0.19;89.59
54806;BME280;62866;55.776;37.496;2024-01-30T04:16:32;100889.63;;;0.21;89.81
54806;BME280;62866;55.776;37.496;2024-01-30T04:18:58;100893.19;;;0.20;89.71
54806;BME280;62866;55.776;37.496;2024-01-30T04:21:23;100889.44;;;0.24;89.94
54806;BME280;62866;55.776;37.496;2024-01-30T04:23:51;100879.94;;;0.22;89.96
54806;BME280;62866;55.776;37.496;2024-01-30T04:26:16;100890.16;;;0.26;89.81
54806;BME280;62866;55.776;37.496;2024-01-30T04:28:44;100890.81;;;0.30;89.80
54806;BME280;62866;55.776;37.496;2024-01-30T04:31:10;100889.03;;;0.30;89.56
54806;BME280;62866;55.776;37.496;2024-01-30T04:33:35;100890.66;;;0.33;89.51
54806;BME280;62866;55.776;37.496;2024-01-30T04:36:01;100878.72;;;0.27;89.49
54806;BME280;62866;55.776;37.496;2024-01-30T04:38:27;100888.94;;;0.32;89.81
54806;BME280;62866;55.776;37.496;2024-01-30T04:40:52;100888.19;;;0.30;89.43
54806;BME280;62866;55.776;37.496;2024-01-30T04:43:18;100886.31;;;0.32;89.64
54806;BME280;62866;55.776;37.496;2024-01-30T04:45:44;100882.75;;;0.33;89.36
54806;BME280;62866;55.776;37.496;2024-01-30T04:48:09;100875.88;;;0.30;89.58
54806;BME280;62866;55.776;37.496;2024-01-30T04:50:35;100895.06;;;0.32;89.97
54806;BME280;62866;55.776;37.496;2024-01-30T04:53:01;100884.63;;;0.31;89.90
54806;BME280;62866;55.776;37.496;2024-01-30T04:55:27;100883.47;;;0.35;90.04
54806;BME280;62866;55.776;37.496;2024-01-30T04:57:52;100889.31;;;0.40;90.08
54806;BME280;62866;55.776;37.496;2024-01-30T05:00:18;100884.31;;;0.35;89.77
54806;BME280;62866;55.776;37.496;2024-01-30T05:02:43;100875.88;;;0.30;89.98
54806;BME280;62866;55.776;37.496;2024-01-30T05:05:09;100881.22;;;0.43;90.05
54806;BME280;62866;55.776;37.496;2024-01-30T05:07:35;100869.13;;;0.41;89.89
54806;BME280;62866;55.776;37.496;2024-01-30T05:10:00;100879.25;;;0.47;89.56
54806;BME280;62866;55.776;37.496;2024-01-30T05:12:26;100886.94;;;0.50;90.25
54806;BME280;62866;55.776;37.496;2024-01-30T05:14:52;100874.44;;;0.53;89.71
54806;BME280;62866;55.776;37.496;2024-01-30T05:17:17;100877.91;;;0.54;89.38
54806;BME280;62866;55.776;37.496;2024-01-30T05:19:43;100885.78;;;0.54;89.42
54806;BME280;62866;55.776;37.496;2024-01-30T05:22:09;100885.16;;;0.50;89.16
54806;BME280;62866;55.776;37.496;2024-01-30T05:24:36;100891.91;;;0.54;89.38
54806;BME280;62866;55.776;37.496;2024-01-30T05:27:02;100904.13;;;0.55;89.46
54806;BME280;62866;55.776;37.496;2024-01-30T05:29:28;100906.56;;;0.58;89.36
54806;BME280;62866;55.776;37.496;2024-01-30T05:31:53;100901.31;;;0.58;89.40
54806;BME280;62866;55.776;37.496;2024-01-30T05:34:19;100900.75;;;0.53;89.43
54806;BME280;62866;55.776;37.496;2024-01-30T05:36:44;100901.19;;;0.60;89.48
54806;BME280;62866;55.776;37.496;2024-01-30T05:39:10;100900.81;;;0.66;89.59
54806;BME280;62866;55.776;37.496;2024-01-30T05:41:36;100900.81;;;0.66;89.56
54806;BME280;62866;55.776;37.496;2024-01-30T05:44:01;100903.44;;;0.66;89.33
54806;BME280;62866;55.776;37.496;2024-01-30T05:46:27;100899.88;;;0.67;89.42
54806;BME280;62866;55.776;37.496;2024-01-30T05:48:53;100895.81;;;0.61;89.24
54806;BME280;62866;55.776;37.496;2024-01-30T05:51:18;100906.25;;;0.63;89.38
54806;BME280;62866;55.776;37.496;2024-01-30T05:53:44;100912.28;;;0.65;89.27
54806;BME280;62866;55.776;37.496;2024-01-30T05:56:09;100907.97;;;0.64;89.28
54806;BME280;62866;55.776;37.496;2024-01-30T05:58:35;100906.81;;;0.68;89.02
54806;BME280;62866;55.776;37.496;2024-01-30T06:01:06;100918.19;;;0.68;89.03
54806;BME280;62866;55.776;37.496;2024-01-30T06:03:32;100920.94;;;0.67;88.99
54806;BME280;62866;55.776;37.496;2024-01-30T06:05:57;100916.25;;;0.58;89.17
54806;BME280;62866;55.776;37.496;2024-01-30T06:08:23;100914.75;;;0.54;89.45
54806;BME280;62866;55.776;37.496;2024-01-30T06:10:48;100920.53;;;0.59;89.95
54806;BME280;62866;55.776;37.496;2024-01-30T06:13:14;100924.69;;;0.63;90.03
54806;BME280;62866;55.776;37.496;2024-01-30T06:15:39;100925.00;;;0.58;89.85
54806;BME280;62866;55.776;37.496;2024-01-30T06:18:05;100923.84;;;0.62;89.78
54806;BME280;62866;55.776;37.496;2024-01-30T06:20:31;100925.53;;;0.63;90.20
54806;BME280;62866;55.776;37.496;2024-01-30T06:22:56;100931.56;;;0.65;90.17
54806;BME280;62866;55.776;37.496;2024-01-30T06:25:22;100925.97;;;0.70;90.16
54806;BME280;62866;55.776;37.496;2024-01-30T06:27:47;100932.53;;;0.77;90.03
54806;BME280;62866;55.776;37.496;2024-01-30T06:30:13;100930.25;;;0.85;89.69
54806;BME280;62866;55.776;37.496;2024-01-30T06:32:38;100940.41;;;0.91;90.00
54806;BME280;62866;55.776;37.496;2024-01-30T06:35:05;100945.38;;;0.96;89.86
54806;BME280;62866;55.776;37.496;2024-01-30T06:37:31;100943.19;;;1.02;90.19
54806;BME280;62866;55.776;37.496;2024-01-30T06:39:56;100940.97;;;1.09;89.53
54806;BME280;62866;55.776;37.496;2024-01-30T06:42:22;100944.38;;;1.11;89.48
54806;BME280;62866;55.776;37.496;2024-01-30T06:44:47;100937.31;;;1.11;89.44
54806;BME280;62866;55.776;37.496;2024-01-30T06:47:13;100943.44;;;1.12;89.43
54806;BME280;62866;55.776;37.496;2024-01-30T06:49:39;100942.81;;;1.08;89.46
54806;BME280;62866;55.776;37.496;2024-01-30T06:52:07;100948.88;;;1.09;89.56
54806;BME280;62866;55.776;37.496;2024-01-30T06:54:33;100945.31;;;1.10;89.34
54806;BME280;62866;55.776;37.496;2024-01-30T06:56:59;100945.03;;;1.14;89.50
54806;BME280;62866;55.776;37.496;2024-01-30T06:59:25;100950.28;;;1.14;89.51
54806;BME280;62866;55.776;37.496;2024-01-30T07:01:50;100946.72;;;1.16;89.58
54806;BME280;62866;55.776;37.496;2024-01-30T07:04:16;100951.13;;;1.15;89.61
54806;BME280;62866;55.776;37.496;2024-01-30T07:06:42;100955.34;;;1.18;89.27
54806;BME280;62866;55.776;37.496;2024-01-30T07:09:08;100957.03;;;1.19;89.22
54806;BME280;62866;55.776;37.496;2024-01-30T07:11:36;100968.50;;;1.18;89.27
54806;BME280;62866;55.776;37.496;2024-01-30T07:14:01;100965.78;;;1.19;89.23
54806;BME280;62866;55.776;37.496;2024-01-30T07:16:30;100959.56;;;1.20;89.18
54806;BME280;62866;55.776;37.496;2024-01-30T07:18:55;100963.59;;;1.26;88.87
54806;BME280;62866;55.776;37.496;2024-01-30T07:21:22;100964.91;;;1.33;88.75
54806;BME280;62866;55.776;37.496;2024-01-30T07:23:53;100963.97;;;1.46;88.36
54806;BME280;62866;55.776;37.496;2024-01-30T07:26:18;100965.47;;;1.50;88.41
54806;BME280;62866;55.776;37.496;2024-01-30T07:28:44;100963.78;;;1.62;88.54
54806;BME280;62866;55.776;37.496;2024-01-30T07:31:09;100968.78;;;1.67;88.46
54806;BME280;62866;55.776;37.496;2024-01-30T07:33:35;100962.75;;;1.65;88.43
54806;BME280;62866;55.776;37.496;2024-01-30T07:36:01;100979.00;;;1.59;88.18
54806;BME280;62866;55.776;37.496;2024-01-30T07:38:26;100979.09;;;1.57;88.59
54806;BME280;62866;55.776;37.496;2024-01-30T07:40:52;100987.63;;;1.61;88.39
54806;BME280;62866;55.776;37.496;2024-01-30T07:43:17;100985.81;;;1.61;88.21
54806;BME280;62866;55.776;37.496;2024-01-30T07:45:43;100987.41;;;1.64;88.38
54806;BME280;62866;55.776;37.496;2024-01-30T07:48:08;100984.19;;;1.73;87.73
54806;BME280;62866;55.776;37.496;2024-01-30T07:50:34;100982.91;;;1.78;88.14
54806;BME280;62866;55.776;37.496;2024-01-30T07:53:00;100989.44;;;1.85;87.98
54806;BME280;62866;55.776;37.496;2024-01-30T07:55:26;100984.09;;;1.87;87.75
54806;BME280;62866;55.776;37.496;2024-01-30T07:57:56;100983.88;;;1.90;87.47
54806;BME280;62866;55.776;37.496;2024-01-30T08:00:22;100985.34;;;1.94;87.70
54806;BME280;62866;55.776;37.496;2024-01-30T08:02:47;100991.38;;;1.96;87.36
54806;BME280;62866;55.776;37.496;2024-01-30T08:05:13;100980.91;;;1.95;86.99
54806;BME280;62866;55.776;37.496;2024-01-30T08:07:41;100971.88;;;1.99;86.82
54806;BME280;62866;55.776;37.496;2024-01-30T08:10:07;100968.69;;;1.94;87.04
54806;BME280;62866;55.776;37.496;2024-01-30T08:12:33;100979.69;;;2.00;87.25
54806;BME280;62866;55.776;37.496;2024-01-30T08:14:58;100976.28;;;1.98;87.06
54806;BME280;62866;55.776;37.496;2024-01-30T08:17:24;100970.69;;;1.90;86.64
54806;BME280;62866;55.776;37.496;2024-01-30T08:19:49;100968.81;;;1.92;86.88
54806;BME280;62866;55.776;37.496;2024-01-30T08:22:15;100966.03;;;1.94;86.71
54806;BME280;62866;55.776;37.496;2024-01-30T08:24:41;100973.66;;;1.98;86.92
54806;BME280;62866;55.776;37.496;2024-01-30T08:27:07;100983.16;;;2.01;86.75
54806;BME280;62866;55.776;37.496;2024-01-30T08:29:35;100988.63;;;1.98;86.19
54806;BME280;62866;55.776;37.496;2024-01-30T08:32:01;100991.47;;;1.95;86.43
54806;BME280;62866;55.776;37.496;2024-01-30T08:34:26;100988.22;;;2.04;86.53
54806;BME280;62866;55.776;37.496;2024-01-30T08:36:52;100985.03;;;2.11;86.49
54806;BME280;62866;55.776;37.496;2024-01-30T08:39:18;100972.50;;;2.15;86.19
54806;BME280;62866;55.776;37.496;2024-01-30T08:41:43;100968.47;;;2.22;86.16
54806;BME280;62866;55.776;37.496;2024-01-30T08:44:09;100974.91;;;2.31;85.72
54806;BME280;62866;55.776;37.496;2024-01-30T08:46:36;100969.31;;;2.22;85.72
54806;BME280;62866;55.776;37.496;2024-01-30T08:49:02;100967.63;;;2.21;85.84
54806;BME280;62866;55.776;37.496;2024-01-30T08:51:29;100976.41;;;2.22;85.63
54806;BME280;62866;55.776;37.496;2024-01-30T08:53:54;100982.72;;;2.19;85.51
54806;BME280;62866;55.776;37.496;2024-01-30T08:56:20;100977.69;;;2.16;85.20
54806;BME280;62866;55.776;37.496;2024-01-30T08:58:45;100982.63;;;2.21;85.60
54806;BME280;62866;55.776;37.496;2024-01-30T09:01:11;100973.56;;;2.25;85.15
54806;BME280;62866;55.776;37.496;2024-01-30T09:03:36;100970.69;;;2.28;85.30
54806;BME280;62866;55.776;37.496;2024-01-30T09:06:08;100977.56;;;2.31;85.18
54806;BME280;62866;55.776;37.496;2024-01-30T09:08:34;100974.56;;;2.35;85.47
54806;BME280;62866;55.776;37.496;2024-01-30T09:10:59;100982.19;;;2.40;84.67
54806;BME280;62866;55.776;37.496;2024-01-30T09:13:25;100975.13;;;2.40;84.63
54806;BME280;62866;55.776;37.496;2024-01-30T09:15:53;100977.31;;;2.46;84.56
54806;BME280;62866;55.776;37.496;2024-01-30T09:18:19;100979.84;;;2.48;84.59
54806;BME280;62866;55.776;37.496;2024-01-30T09:20:45;100985.13;;;2.48;84.34
54806;BME280;62866;55.776;37.496;2024-01-30T09:23:13;100980.16;;;2.56;84.55
54806;BME280;62866;55.776;37.496;2024-01-30T09:25:39;100972.44;;;2.53;84.24
54806;BME280;62866;55.776;37.496;2024-01-30T09:28:05;100972.97;;;2.58;84.40
54806;BME280;62866;55.776;37.496;2024-01-30T09:30:31;100963.97;;;2.73;84.03
54806;BME280;62866;55.776;37.496;2024-01-30T09:32:56;100964.75;;;2.86;83.49
54806;BME280;62866;55.776;37.496;2024-01-30T09:35:21;100968.44;;;2.96;83.67
54806;BME280;62866;55.776;37.496;2024-01-30T09:37:47;100974.00;;;3.04;83.45
54806;BME280;62866;55.776;37.496;2024-01-30T09:40:14;100972.09;;;3.07;83.26
54806;BME280;62866;55.776;37.496;2024-01-30T09:42:46;100966.91;;;3.05;83.25
54806;BME280;62866;55.776;37.496;2024-01-30T09:45:13;100963.31;;;3.06;82.95
54806;BME280;62866;55.776;37.496;2024-01-30T09:47:43;100959.84;;;3.05;83.03
54806;BME280;62866;55.776;37.496;2024-01-30T09:50:10;100964.91;;;3.09;83.49
54806;BME280;62866;55.776;37.496;2024-01-30T09:52:36;100948.53;;;3.03;83.56
54806;BME280;62866;55.776;37.496;2024-01-30T09:55:02;100943.50;;;3.00;84.01
54806;BME280;62866;55.776;37.496;2024-01-30T09:57:28;100954.34;;;3.09;82.73
54806;BME280;62866;55.776;37.496;2024-01-30T09:59:54;100964.84;;;3.21;83.11
54806;BME280;62866;55.776;37.496;2024-01-30T10:02:20;100953.09;;;3.25;82.57
54806;BME280;62866;55.776;37.496;2024-01-30T10:04:50;100958.66;;;3.33;82.62
54806;BME280;62866;55.776;37.496;2024-01-30T10:07:19;100955.38;;;3.30;82.66
54806;BME280;62866;55.776;37.496;2024-01-30T10:09:45;100949.72;;;3.23;82.84
54806;BME280;62866;55.776;37.496;2024-01-30T10:12:11;100962.66;;;3.15;83.16
54806;BME280;62866;55.776;37.496;2024-01-30T10:14:40;100957.59;;;3.12;83.62
54806;BME280;62866;55.776;37.496;2024-01-30T10:17:10;100948.91;;;3.10;83.15
54806;BME280;62866;55.776;37.496;2024-01-30T10:19:40;100956.47;;;3.03;83.70
54806;BME280;62866;55.776;37.496;2024-01-30T10:22:06;100949.84;;;2.98;83.14
54806;BME280;62866;55.776;37.496;2024-01-30T10:24:33;100963.31;;;3.06;83.48
54806;BME280;62866;55.776;37.496;2024-01-30T10:26:59;100954.75;;;3.02;83.23
54806;BME280;62866;55.776;37.496;2024-01-30T10:29:24;100959.34;;;3.00;83.18
54806;BME280;62866;55.776;37.496;2024-01-30T10:32:03;100952.19;;;2.90;83.15
54806;BME280;62866;55.776;37.496;2024-01-30T10:34:30;100955.00;;;2.63;83.61
54806;BME280;62866;55.776;37.496;2024-01-30T10:37:08;100960.22;;;2.39;83.83
54806;BME280;62866;55.776;37.496;2024-01-30T10:39:46;100967.84;;;2.18;85.42
54806;BME280;62866;55.776;37.496;2024-01-30T10:42:13;100960.69;;;2.08;85.95
54806;BME280;62866;55.776;37.496;2024-01-30T10:44:48;100955.72;;;2.03;86.03
54806;BME280;62866;55.776;37.496;2024-01-30T10:47:21;100956.56;;;2.04;86.19
54806;BME280;62866;55.776;37.496;2024-01-30T10:49:51;100956.56;;;2.16;86.18
54806;BME280;62866;55.776;37.496;2024-01-30T10:52:18;100953.28;;;2.25;86.04
54806;BME280;62866;55.776;37.496;2024-01-30T10:54:44;100948.69;;;2.53;85.88
54806;BME280;62866;55.776;37.496;2024-01-30T10:57:11;100952.16;;;2.66;85.47
54806;BME280;62866;55.776;37.496;2024-01-30T10:59:38;100951.72;;;2.96;85.59
54806;BME280;62866;55.776;37.496;2024-01-30T11:02:05;100950.88;;;3.19;85.00
54806;BME280;62866;55.776;37.496;2024-01-30T11:04:57;100949.81;;;3.22;84.54
54806;BME280;62866;55.776;37.496;2024-01-30T11:07:25;100953.72;;;3.05;85.25
54806;BME280;62866;55.776;37.496;2024-01-30T11:12:25;100954.66;;;3.04;86.64
54806;BME280;62866;55.776;37.496;2024-01-30T11:15:13;100951.34;;;2.89;85.71
54806;BME280;62866;55.776;37.496;2024-01-30T11:20:30;100958.03;;;2.82;86.19
54806;BME280;62866;55.776;37.496;2024-01-30T11:23:01;100952.34;;;2.76;85.79
54806;BME280;62866;55.776;37.496;2024-01-30T11:25:31;100962.31;;;2.47;86.39
54806;BME280;62866;55.776;37.496;2024-01-30T11:27:57;100951.38;;;2.40;86.28
54806;BME280;62866;55.776;37.496;2024-01-30T11:30:30;100959.69;;;2.47;86.69
54806;BME280;62866;55.776;37.496;2024-01-30T11:35:38;100967.59;;;2.59;86.49
54806;BME280;62866;55.776;37.496;2024-01-30T11:38:05;100972.88;;;2.59;85.95
54806;BME280;62866;55.776;37.496;2024-01-30T11:40:32;100977.31;;;2.59;85.81
54806;BME280;62866;55.776;37.496;2024-01-30T11:43:00;100988.19;;;2.54;85.80
54806;BME280;62866;55.776;37.496;2024-01-30T11:45:27;100984.81;;;2.52;85.90
54806;BME280;62866;55.776;37.496;2024-01-30T11:47:53;100984.81;;;2.52;85.39
54806;BME280;62866;55.776;37.496;2024-01-30T11:50:19;100992.00;;;2.50;85.22
54806;BME280;62866;55.776;37.496;2024-01-30T11:52:44;100998.03;;;2.40;85.54
54806;BME280;62866;55.776;37.496;2024-01-30T11:55:10;100992.84;;;2.38;85.83
54806;BME280;62866;55.776;37.496;2024-01-30T11:57:36;101001.28;;;2.43;86.05
54806;BME280;62866;55.776;37.496;2024-01-30T12:00:05;101004.75;;;2.44;86.13
54806;BME280;62866;55.776;37.496;2024-01-30T12:02:39;101003.31;;;2.40;86.25
54806;BME280;62866;55.776;37.496;2024-01-30T12:05:08;101007.53;;;2.42;86.71
54806;BME280;62866;55.776;37.496;2024-01-30T12:07:35;101004.06;;;2.42;86.50
54806;BME280;62866;55.776;37.496;2024-01-30T12:10:00;100996.44;;;2.37;86.69
54806;BME280;62866;55.776;37.496;2024-01-30T12:12:27;100990.75;;;2.31;86.59
54806;BME280;62866;55.776;37.496;2024-01-30T12:14:53;101010.47;;;2.38;86.83
54806;BME280;62866;55.776;37.496;2024-01-30T12:17:32;101006.78;;;2.40;86.64
54806;BME280;62866;55.776;37.496;2024-01-30T12:20:06;101001.19;;;2.45;86.24
54806;BME280;62866;55.776;37.496;2024-01-30T12:22:46;101010.69;;;2.47;86.15
54806;BME280;62866;55.776;37.496;2024-01-30T12:25:14;101007.19;;;2.47;86.63
54806;BME280;62866;55.776;37.496;2024-01-30T12:27:43;101015.22;;;2.45;86.58
54806;BME280;62866;55.776;37.496;2024-01-30T12:30:10;101018.09;;;2.42;87.08
54806;BME280;62866;55.776;37.496;2024-01-30T12:32:40;101003.22;;;2.41;87.03
54806;BME280;62866;55.776;37.496;2024-01-30T12:35:09;100997.38;;;2.36;87.18
54806;BME280;62866;55.776;37.496;2024-01-30T12:37:35;101005.00;;;2.41;87.73
54806;BME280;62866;55.776;37.496;2024-01-30T12:40:01;100994.34;;;2.42;88.18
54806;BME280;62866;55.776;37.496;2024-01-30T12:42:27;101000.03;;;2.49;87.82
54806;BME280;62866;55.776;37.496;2024-01-30T12:44:52;100992.50;;;2.43;87.80
54806;BME280;62866;55.776;37.496;2024-01-30T12:47:18;101007.00;;;2.50;88.05
54806;BME280;62866;55.776;37.496;2024-01-30T12:49:46;101010.59;;;2.49;88.48
54806;BME280;62866;55.776;37.496;2024-01-30T12:52:13;101009.75;;;2.48;88.05